createdAt,value
2018-03-02T00:01:38.015Z,21.6
2018-03-02T00:11:37.386Z,21.6
2018-03-02T00:21:36.378Z,21.6
2018-03-02T00:31:35.777Z,21.6
2018-03-02T00:41:34.816Z,21.5
2018-03-02T00:51:34.093Z,21.6
2018-03-02T01:01:33.366Z,21.6
2018-03-02T01:11:32.182Z,21.6
2018-03-02T01:21:31.732Z,21.6
2018-03-02T01:31:30.905Z,21.5
2018-03-02T01:41:30.100Z,21.5
2018-03-02T01:51:29.383Z,21.5
2018-03-02T02:01:28.791Z,21.5
2018-03-02T02:11:27.356Z,21.4
2018-03-02T02:21:26.716Z,21.4
2018-03-02T02:31:26.044Z,21.4
2018-03-02T02:41:25.329Z,21.4
2018-03-02T02:51:24.429Z,21.4
2018-03-02T03:01:23.574Z,21.4
2018-03-02T03:11:22.835Z,21.4
2018-03-02T03:21:21.915Z,21.4
2018-03-02T03:31:21.024Z,21.4
2018-03-02T03:41:20.354Z,21.4
2018-03-02T03:51:19.930Z,21.4
2018-03-02T04:01:18.609Z,21.5
2018-03-02T04:11:18.023Z,21.5
2018-03-02T04:21:16.950Z,21.4
2018-03-02T04:31:16.231Z,21.4
2018-03-02T04:41:15.438Z,21.4
2018-03-02T04:51:14.725Z,21.3
2018-03-02T05:01:13.773Z,21.3
2018-03-02T05:11:13.237Z,21.4
2018-03-02T05:21:12.606Z,21.4
2018-03-02T05:31:11.540Z,21.4
2018-03-02T05:41:10.975Z,21.4
2018-03-02T05:51:09.925Z,21.4
2018-03-02T06:01:09.033Z,21.3
2018-03-02T06:11:08.178Z,21.3
2018-03-02T06:21:07.691Z,21.3
2018-03-02T06:31:07.016Z,21.7
2018-03-02T06:41:05.959Z,21.8
2018-03-02T06:51:05.018Z,21.7
2018-03-02T07:01:04.384Z,21.7
2018-03-02T07:11:03.412Z,22
2018-03-02T07:21:02.929Z,21.9
2018-03-02T07:31:02.120Z,21.8
2018-03-02T07:41:01.518Z,21.9
2018-03-02T07:51:00.305Z,21.8
2018-03-02T08:00:59.511Z,21.9
2018-03-02T08:10:59.004Z,22.1
2018-03-02T08:20:57.906Z,22
2018-03-02T08:30:57.031Z,21.8
2018-03-02T08:40:56.808Z,21.9
2018-03-02T08:50:55.752Z,22.1
2018-03-02T09:00:54.828Z,21.9
2018-03-02T09:10:54.332Z,21.9
2018-03-02T09:20:53.080Z,22.1
2018-03-02T09:30:52.368Z,21.9
2018-03-02T09:40:51.580Z,21.8
2018-03-02T09:50:50.854Z,22
2018-03-02T10:00:49.767Z,22
2018-03-02T10:10:49.080Z,21.9
2018-03-02T10:20:48.542Z,22.1
2018-03-02T10:30:47.483Z,21.9
2018-03-02T10:40:47.053Z,21.8
2018-03-02T10:50:46.134Z,21.7
2018-03-02T11:00:45.068Z,21.6
2018-03-02T11:10:44.287Z,21.6
2018-03-02T11:20:43.534Z,21.7
2018-03-02T11:30:43.016Z,21.8
2018-03-02T11:40:42.260Z,21.8
2018-03-02T11:50:41.112Z,21.9
2018-03-02T12:00:40.433Z,21.8
2018-03-02T12:10:39.425Z,21.9
2018-03-02T12:20:38.757Z,21.9
2018-03-02T12:30:38.137Z,21.9
2018-03-02T12:40:37.349Z,21.9
2018-03-02T12:50:36.317Z,21.8
2018-03-02T13:00:36.072Z,21.9
2018-03-02T13:10:34.729Z,21.9
2018-03-02T13:20:34.181Z,21.9
2018-03-02T13:30:33.240Z,21.9
2018-03-02T13:40:32.365Z,21.8
2018-03-02T13:50:31.541Z,22
2018-03-02T14:00:30.620Z,21.9
2018-03-02T14:10:29.839Z,21.9
2018-03-02T14:20:29.061Z,21.9
2018-03-02T14:30:28.473Z,21.8
2018-03-02T14:40:27.580Z,22
2018-03-02T14:50:26.674Z,22.3
2018-03-02T15:00:26.119Z,22.4
2018-03-02T15:10:25.595Z,22.3
2018-03-02T15:20:24.279Z,22.1
2018-03-02T15:30:23.671Z,21.9
2018-03-02T15:40:22.960Z,22
2018-03-02T15:50:22.081Z,22.1
2018-03-02T16:00:21.198Z,22.1
2018-03-02T16:10:20.506Z,21.9
2018-03-02T16:20:19.504Z,21.9
2018-03-02T16:30:18.993Z,21.8
2018-03-02T16:40:17.931Z,21.9
2018-03-02T16:50:17.303Z,22
2018-03-02T17:00:16.571Z,21.9
2018-03-02T17:10:15.456Z,21.8
2018-03-02T17:20:14.723Z,21.7
2018-03-02T17:30:13.866Z,21.6
2018-03-02T17:40:13.243Z,21.7
2018-03-02T17:50:12.557Z,22
2018-03-02T18:00:12.099Z,22
2018-03-02T18:10:11.151Z,22.1
2018-03-02T18:20:10.230Z,22
2018-03-02T18:30:09.118Z,22.1
2018-03-02T18:40:08.385Z,21.9
2018-03-02T18:50:07.882Z,21.9
2018-03-02T19:00:07.343Z,21.8
2018-03-02T19:10:06.126Z,21.8
2018-03-02T19:20:05.569Z,21.8
2018-03-02T19:30:04.773Z,21.9
2018-03-02T19:40:03.788Z,21.9
2018-03-02T19:50:02.924Z,21.9
2018-03-02T20:00:02.660Z,21.9
2018-03-02T20:10:01.182Z,21.8
2018-03-02T20:20:00.731Z,21.8
2018-03-02T20:29:59.773Z,21.8
2018-03-02T20:39:58.742Z,21.8
2018-03-02T20:49:58.239Z,21.8
2018-03-02T20:59:57.406Z,21.8
2018-03-02T21:09:56.635Z,21.8
2018-03-02T21:19:55.988Z,21.8
2018-03-02T21:29:55.036Z,21.7
2018-03-02T21:39:54.681Z,21.7
2018-03-02T21:49:53.577Z,21.7
2018-03-02T21:59:52.452Z,21.7
